Terminal Aerodrome Forecast
Issued by NWS Lake Charles, LA

Home | Current Version | Previous Version | Text Only | Print | Product List | Glossary On
Versions: 1 2 3 4 5 6 7 8 9 10 11 12 13 14 15 16 17
000
FTUS44 KLCH 291139
TAFBPT
TAF
KBPT 291139Z 2912/3012 18006KT P6SM VCTS FEW022 BKN035CB
      TEMPO 2913/2916 VRB18G25KT 2SM TSRA FEW017 BKN022CB
     FM291600 17008KT P6SM VCSH SCT028 BKN035
     FM291900 18010KT P6SM VCTS BKN040CB
     FM300200 16005KT P6SM SCT030 BKN200=

USA.gov is the U.S. government's official web portal to all federal, state and local government web resources and services.